sensor_id;sensor_type;location;lat;lon;timestamp;temperature;humidity
30063;DHT22;16889;67.864;24.990;2022-08-07T00:02:54;11.00;99.90
30063;DHT22;16889;67.864;24.990;2022-08-07T00:07:42;10.80;99.90
30063;DHT22;16889;67.864;24.990;2022-08-07T00:12:28;10.80;99.90
30063;DHT22;16889;67.864;24.990;2022-08-07T00:17:14;10.60;99.90
30063;DHT22;16889;67.864;24.990;2022-08-07T00:22:01;10.40;99.90
30063;DHT22;16889;67.864;24.990;2022-08-07T00:26:47;10.30;99.90
30063;DHT22;16889;67.864;24.990;2022-08-07T00:31:33;10.20;99.90
30063;DHT22;16889;67.864;24.990;2022-08-07T00:36:19;10.20;99.90
30063;DHT22;16889;67.864;24.990;2022-08-07T00:41:05;10.20;99.90
30063;DHT22;16889;67.864;24.990;2022-08-07T00:45:52;10.20;99.90
30063;DHT22;16889;67.864;24.990;2022-08-07T00:50:39;10.20;99.90
30063;DHT22;16889;67.864;24.990;2022-08-07T00:55:25;10.30;99.90
30063;DHT22;16889;67.864;24.990;2022-08-07T01:00:12;10.20;99.90
30063;DHT22;16889;67.864;24.990;2022-08-07T01:05:00;10.20;99.90
30063;DHT22;16889;67.864;24.990;2022-08-07T01:09:51;10.00;99.90
30063;DHT22;16889;67.864;24.990;2022-08-07T01:14:37;10.00;99.90
30063;DHT22;16889;67.864;24.990;2022-08-07T01:19:24;9.90;99.90
30063;DHT22;16889;67.864;24.990;2022-08-07T01:24:11;9.90;99.90
30063;DHT22;16889;67.864;24.990;2022-08-07T01:28:58;9.90;99.90
30063;DHT22;16889;67.864;24.990;2022-08-07T01:33:46;9.90;99.90
30063;DHT22;16889;67.864;24.990;2022-08-07T01:38:32;9.80;99.90
30063;DHT22;16889;67.864;24.990;2022-08-07T01:43:18;9.70;99.90
30063;DHT22;16889;67.864;24.990;2022-08-07T01:48:04;9.70;99.90
30063;DHT22;16889;67.864;24.990;2022-08-07T01:52:52;9.60;99.90
30063;DHT22;16889;67.864;24.990;2022-08-07T01:57:41;9.60;99.90
30063;DHT22;16889;67.864;24.990;2022-08-07T02:02:45;9.60;99.90
30063;DHT22;16889;67.864;24.990;2022-08-07T02:07:40;9.50;99.90
30063;DHT22;16889;67.864;24.990;2022-08-07T02:12:30;9.50;99.90
30063;DHT22;16889;67.864;24.990;2022-08-07T02:17:17;9.40;99.90
30063;DHT22;16889;67.864;24.990;2022-08-07T02:22:04;9.40;99.90
30063;DHT22;16889;67.864;24.990;2022-08-07T02:26:50;9.30;99.90
30063;DHT22;16889;67.864;24.990;2022-08-07T02:31:38;9.20;99.90
30063;DHT22;16889;67.864;24.990;2022-08-07T02:36:26;9.10;99.90
30063;DHT22;16889;67.864;24.990;2022-08-07T02:41:13;9.00;99.90
30063;DHT22;16889;67.864;24.990;2022-08-07T02:46:01;8.90;99.90
30063;DHT22;16889;67.864;24.990;2022-08-07T02:50:52;8.90;99.90
30063;DHT22;16889;67.864;24.990;2022-08-07T02:55:44;8.90;99.90
30063;DHT22;16889;67.864;24.990;2022-08-07T03:00:36;8.80;99.90
30063;DHT22;16889;67.864;24.990;2022-08-07T03:05:23;8.70;99.90
30063;DHT22;16889;67.864;24.990;2022-08-07T03:10:09;8.70;99.90
30063;DHT22;16889;67.864;24.990;2022-08-07T03:14:58;8.70;99.90
30063;DHT22;16889;67.864;24.990;2022-08-07T03:19:44;8.60;99.90
30063;DHT22;16889;67.864;24.990;2022-08-07T03:24:33;8.60;99.90
30063;DHT22;16889;67.864;24.990;2022-08-07T03:29:19;8.50;99.90
30063;DHT22;16889;67.864;24.990;2022-08-07T03:34:08;8.50;99.90
30063;DHT22;16889;67.864;24.990;2022-08-07T03:38:59;8.40;99.90
30063;DHT22;16889;67.864;24.990;2022-08-07T03:43:48;8.40;99.90
30063;DHT22;16889;67.864;24.990;2022-08-07T03:48:34;8.50;99.90
30063;DHT22;16889;67.864;24.990;2022-08-07T03:53:21;8.60;99.90
30063;DHT22;16889;67.864;24.990;2022-08-07T03:58:08;8.60;99.90
30063;DHT22;16889;67.864;24.990;2022-08-07T04:02:54;8.60;99.90
30063;DHT22;16889;67.864;24.990;2022-08-07T04:07:47;8.50;99.90
30063;DHT22;16889;67.864;24.990;2022-08-07T04:12:33;8.50;99.90
30063;DHT22;16889;67.864;24.990;2022-08-07T04:17:19;8.60;99.90
30063;DHT22;16889;67.864;24.990;2022-08-07T04:22:06;8.60;99.90
30063;DHT22;16889;67.864;24.990;2022-08-07T04:26:52;8.70;99.90
30063;DHT22;16889;67.864;24.990;2022-08-07T04:31:39;8.80;99.90
30063;DHT22;16889;67.864;24.990;2022-08-07T04:36:25;8.80;99.90
30063;DHT22;16889;67.864;24.990;2022-08-07T04:41:11;8.80;99.90
30063;DHT22;16889;67.864;24.990;2022-08-07T04:46:08;8.80;99.90
30063;DHT22;16889;67.864;24.990;2022-08-07T04:56:23;9.00;99.90
30063;DHT22;16889;67.864;24.990;2022-08-07T05:01:26;9.00;99.90
30063;DHT22;16889;67.864;24.990;2022-08-07T05:06:24;9.00;99.90
30063;DHT22;16889;67.864;24.990;2022-08-07T05:11:41;9.00;99.90
30063;DHT22;16889;67.864;24.990;2022-08-07T05:16:30;9.10;99.90
30063;DHT22;16889;67.864;24.990;2022-08-07T05:21:21;9.10;99.90
30063;DHT22;16889;67.864;24.990;2022-08-07T05:26:13;9.10;99.90
30063;DHT22;16889;67.864;24.990;2022-08-07T05:31:00;9.30;99.90
30063;DHT22;16889;67.864;24.990;2022-08-07T05:35:50;9.50;99.90
30063;DHT22;16889;67.864;24.990;2022-08-07T05:40:38;10.60;99.90
30063;DHT22;16889;67.864;24.990;2022-08-07T05:45:25;11.00;99.90
30063;DHT22;16889;67.864;24.990;2022-08-07T05:50:13;10.80;99.90
30063;DHT22;16889;67.864;24.990;2022-08-07T05:55:00;10.60;99.90
30063;DHT22;16889;67.864;24.990;2022-08-07T05:59:47;10.80;99.90
30063;DHT22;16889;67.864;24.990;2022-08-07T06:04:36;10.90;99.90
30063;DHT22;16889;67.864;24.990;2022-08-07T06:09:25;10.70;99.90
30063;DHT22;16889;67.864;24.990;2022-08-07T06:14:12;10.60;99.90
30063;DHT22;16889;67.864;24.990;2022-08-07T06:19:02;10.60;99.90
30063;DHT22;16889;67.864;24.990;2022-08-07T06:23:48;10.80;99.90
30063;DHT22;16889;67.864;24.990;2022-08-07T06:28:50;10.90;99.90
30063;DHT22;16889;67.864;24.990;2022-08-07T06:33:36;11.00;99.90
30063;DHT22;16889;67.864;24.990;2022-08-07T06:38:22;10.80;99.90
30063;DHT22;16889;67.864;24.990;2022-08-07T06:43:09;10.50;99.90
30063;DHT22;16889;67.864;24.990;2022-08-07T06:47:56;10.40;99.90
30063;DHT22;16889;67.864;24.990;2022-08-07T06:52:46;10.50;99.90
30063;DHT22;16889;67.864;24.990;2022-08-07T06:57:33;10.60;99.90
30063;DHT22;16889;67.864;24.990;2022-08-07T07:02:21;10.40;99.90
30063;DHT22;16889;67.864;24.990;2022-08-07T07:07:07;10.20;99.90
30063;DHT22;16889;67.864;24.990;2022-08-07T07:16:45;10.50;99.90
30063;DHT22;16889;67.864;24.990;2022-08-07T07:21:35;11.30;99.90
30063;DHT22;16889;67.864;24.990;2022-08-07T07:26:23;11.60;99.90
30063;DHT22;16889;67.864;24.990;2022-08-07T07:31:21;11.90;99.90
30063;DHT22;16889;67.864;24.990;2022-08-07T07:36:08;12.90;99.90
30063;DHT22;16889;67.864;24.990;2022-08-07T07:40:58;12.80;99.90
30063;DHT22;16889;67.864;24.990;2022-08-07T07:45:46;12.50;99.90
30063;DHT22;16889;67.864;24.990;2022-08-07T07:50:35;12.50;99.90
30063;DHT22;16889;67.864;24.990;2022-08-07T07:55:22;12.10;99.90
30063;DHT22;16889;67.864;24.990;2022-08-07T08:00:10;11.60;99.90
30063;DHT22;16889;67.864;24.990;2022-08-07T08:05:00;12.20;99.90
30063;DHT22;16889;67.864;24.990;2022-08-07T08:09:48;12.50;99.90
30063;DHT22;16889;67.864;24.990;2022-08-07T08:14:35;12.50;99.90
30063;DHT22;16889;67.864;24.990;2022-08-07T08:19:26;12.30;99.90
30063;DHT22;16889;67.864;24.990;2022-08-07T08:24:14;12.60;99.90
30063;DHT22;16889;67.864;24.990;2022-08-07T08:29:21;14.40;99.90
30063;DHT22;16889;67.864;24.990;2022-08-07T08:34:08;15.30;99.90
30063;DHT22;16889;67.864;24.990;2022-08-07T08:38:57;16.50;99.90
30063;DHT22;16889;67.864;24.990;2022-08-07T08:44:07;15.90;99.90
30063;DHT22;16889;67.864;24.990;2022-08-07T08:54:15;15.20;99.90
30063;DHT22;16889;67.864;24.990;2022-08-07T08:59:16;14.40;99.90
30063;DHT22;16889;67.864;24.990;2022-08-07T09:04:17;14.20;99.90
30063;DHT22;16889;67.864;24.990;2022-08-07T09:09:41;13.90;99.90
30063;DHT22;16889;67.864;24.990;2022-08-07T09:14:38;13.70;99.90
30063;DHT22;16889;67.864;24.990;2022-08-07T09:19:44;13.80;99.90
30063;DHT22;16889;67.864;24.990;2022-08-07T09:25:09;14.10;99.90
30063;DHT22;16889;67.864;24.990;2022-08-07T10:26:41;17.80;99.90
30063;DHT22;16889;67.864;24.990;2022-08-07T10:31:55;17.50;99.90
30063;DHT22;16889;67.864;24.990;2022-08-07T10:37:04;17.20;99.80
30063;DHT22;16889;67.864;24.990;2022-08-07T10:42:22;15.80;99.90
30063;DHT22;16889;67.864;24.990;2022-08-07T10:52:27;14.20;99.90
30063;DHT22;16889;67.864;24.990;2022-08-07T10:57:23;14.10;99.90
30063;DHT22;16889;67.864;24.990;2022-08-07T11:02:44;14.10;99.90
30063;DHT22;16889;67.864;24.990;2022-08-07T11:07:45;14.30;99.90
30063;DHT22;16889;67.864;24.990;2022-08-07T11:12:40;14.70;99.90
30063;DHT22;16889;67.864;24.990;2022-08-07T11:23:07;15.10;99.90
30063;DHT22;16889;67.864;24.990;2022-08-07T11:28:16;15.60;99.90
30063;DHT22;16889;67.864;24.990;2022-08-07T11:33:20;16.00;99.90
30063;DHT22;16889;67.864;24.990;2022-08-07T11:38:16;17.10;99.90
30063;DHT22;16889;67.864;24.990;2022-08-07T11:43:29;17.40;99.90
30063;DHT22;16889;67.864;24.990;2022-08-07T11:59:03;17.20;99.90
30063;DHT22;16889;67.864;24.990;2022-08-07T12:08:51;16.50;99.90
30063;DHT22;16889;67.864;24.990;2022-08-07T12:14:01;16.30;99.90
30063;DHT22;16889;67.864;24.990;2022-08-07T12:24:00;16.50;99.90
30063;DHT22;16889;67.864;24.990;2022-08-07T12:29:04;16.20;99.90
30063;DHT22;16889;67.864;24.990;2022-08-07T12:33:52;16.10;99.90
30063;DHT22;16889;67.864;24.990;2022-08-07T12:38:40;16.00;99.90
30063;DHT22;16889;67.864;24.990;2022-08-07T12:43:31;15.90;99.90
30063;DHT22;16889;67.864;24.990;2022-08-07T12:48:44;15.90;99.90
30063;DHT22;16889;67.864;24.990;2022-08-07T12:53:37;16.00;99.90
30063;DHT22;16889;67.864;24.990;2022-08-07T12:58:25;16.50;99.90
30063;DHT22;16889;67.864;24.990;2022-08-07T13:08:47;17.00;99.90
30063;DHT22;16889;67.864;24.990;2022-08-07T13:14:01;17.00;99.50
30063;DHT22;16889;67.864;24.990;2022-08-07T13:19:01;17.30;99.00
30063;DHT22;16889;67.864;24.990;2022-08-07T13:24:01;17.30;97.60
30063;DHT22;16889;67.864;24.990;2022-08-07T13:39:05;16.10;99.90
30063;DHT22;16889;67.864;24.990;2022-08-07T13:43:53;16.00;99.90
30063;DHT22;16889;67.864;24.990;2022-08-07T13:48:45;16.10;99.90
30063;DHT22;16889;67.864;24.990;2022-08-07T13:53:36;15.80;99.90
30063;DHT22;16889;67.864;24.990;2022-08-07T13:58:23;15.60;99.90
30063;DHT22;16889;67.864;24.990;2022-08-07T14:03:29;15.50;99.90
30063;DHT22;16889;67.864;24.990;2022-08-07T14:08:21;15.40;99.90
30063;DHT22;16889;67.864;24.990;2022-08-07T14:13:14;15.20;99.90
30063;DHT22;16889;67.864;24.990;2022-08-07T14:18:16;15.30;99.90
30063;DHT22;16889;67.864;24.990;2022-08-07T14:23:14;15.10;99.90
30063;DHT22;16889;67.864;24.990;2022-08-07T14:28:08;15.00;99.90
30063;DHT22;16889;67.864;24.990;2022-08-07T14:32:56;14.90;99.90
30063;DHT22;16889;67.864;24.990;2022-08-07T14:37:46;15.00;99.90
30063;DHT22;16889;67.864;24.990;2022-08-07T14:42:35;15.70;99.90
30063;DHT22;16889;67.864;24.990;2022-08-07T14:47:22;16.20;99.90
30063;DHT22;16889;67.864;24.990;2022-08-07T14:52:09;16.50;99.90
30063;DHT22;16889;67.864;24.990;2022-08-07T14:56:56;17.00;99.90
30063;DHT22;16889;67.864;24.990;2022-08-07T15:01:43;16.30;99.90
30063;DHT22;16889;67.864;24.990;2022-08-07T15:06:33;15.20;99.90
30063;DHT22;16889;67.864;24.990;2022-08-07T15:11:29;14.10;99.90
30063;DHT22;16889;67.864;24.990;2022-08-07T15:16:16;13.80;99.90
30063;DHT22;16889;67.864;24.990;2022-08-07T15:21:05;13.70;99.90
30063;DHT22;16889;67.864;24.990;2022-08-07T15:25:57;13.70;99.90
30063;DHT22;16889;67.864;24.990;2022-08-07T15:30:45;13.50;99.90
30063;DHT22;16889;67.864;24.990;2022-08-07T15:35:32;13.40;99.90
30063;DHT22;16889;67.864;24.990;2022-08-07T15:40:20;13.20;99.90
30063;DHT22;16889;67.864;24.990;2022-08-07T15:45:10;13.10;99.90
30063;DHT22;16889;67.864;24.990;2022-08-07T15:49:59;13.20;99.90
30063;DHT22;16889;67.864;24.990;2022-08-07T15:54:48;13.30;99.90
30063;DHT22;16889;67.864;24.990;2022-08-07T15:59:36;13.40;99.90
30063;DHT22;16889;67.864;24.990;2022-08-07T16:04:30;13.20;99.90
30063;DHT22;16889;67.864;24.990;2022-08-07T16:09:29;13.20;99.90
30063;DHT22;16889;67.864;24.990;2022-08-07T16:14:58;13.30;99.90
30063;DHT22;16889;67.864;24.990;2022-08-07T16:30:15;13.20;99.90
30063;DHT22;16889;67.864;24.990;2022-08-07T16:35:12;13.10;99.90
30063;DHT22;16889;67.864;24.990;2022-08-07T16:55:47;12.80;99.90
30063;DHT22;16889;67.864;24.990;2022-08-07T17:10:46;13.20;99.90
30063;DHT22;16889;67.864;24.990;2022-08-07T17:20:36;13.40;99.90
30063;DHT22;16889;67.864;24.990;2022-08-07T17:25:35;13.20;99.90
30063;DHT22;16889;67.864;24.990;2022-08-07T17:30:33;13.20;99.90
30063;DHT22;16889;67.864;24.990;2022-08-07T17:45:57;12.70;99.90
30063;DHT22;16889;67.864;24.990;2022-08-07T17:50:58;12.70;99.90
30063;DHT22;16889;67.864;24.990;2022-08-07T17:56:08;12.70;99.90
30063;DHT22;16889;67.864;24.990;2022-08-07T18:00:58;12.60;99.90
30063;DHT22;16889;67.864;24.990;2022-08-07T18:05:54;12.50;99.90
30063;DHT22;16889;67.864;24.990;2022-08-07T18:20:48;12.00;99.90
30063;DHT22;16889;67.864;24.990;2022-08-07T18:25:42;11.90;99.90
30063;DHT22;16889;67.864;24.990;2022-08-07T18:41:06;11.60;99.90
30063;DHT22;16889;67.864;24.990;2022-08-07T18:46:02;11.30;99.90
30063;DHT22;16889;67.864;24.990;2022-08-07T18:51:26;11.20;99.90
30063;DHT22;16889;67.864;24.990;2022-08-07T19:06:12;11.00;99.90
30063;DHT22;16889;67.864;24.990;2022-08-07T19:11:13;10.90;99.90
30063;DHT22;16889;67.864;24.990;2022-08-07T19:16:43;10.80;99.90
30063;DHT22;16889;67.864;24.990;2022-08-07T19:21:53;10.80;99.90
30063;DHT22;16889;67.864;24.990;2022-08-07T19:26:42;10.70;99.90
30063;DHT22;16889;67.864;24.990;2022-08-07T19:31:32;10.80;99.90
30063;DHT22;16889;67.864;24.990;2022-08-07T19:36:19;10.80;99.90
30063;DHT22;16889;67.864;24.990;2022-08-07T19:41:07;10.70;99.90
30063;DHT22;16889;67.864;24.990;2022-08-07T19:45:56;10.50;99.90
30063;DHT22;16889;67.864;24.990;2022-08-07T19:50:42;10.50;99.90
30063;DHT22;16889;67.864;24.990;2022-08-07T19:55:30;10.50;99.90
30063;DHT22;16889;67.864;24.990;2022-08-07T20:00:21;10.50;99.90
30063;DHT22;16889;67.864;24.990;2022-08-07T20:05:13;10.50;99.90
30063;DHT22;16889;67.864;24.990;2022-08-07T20:09:59;10.40;99.90
30063;DHT22;16889;67.864;24.990;2022-08-07T20:14:48;10.40;99.90
30063;DHT22;16889;67.864;24.990;2022-08-07T20:19:34;10.40;99.90
30063;DHT22;16889;67.864;24.990;2022-08-07T20:24:24;10.30;99.90
30063;DHT22;16889;67.864;24.990;2022-08-07T20:29:13;10.20;99.90
30063;DHT22;16889;67.864;24.990;2022-08-07T20:34:00;10.10;99.90
30063;DHT22;16889;67.864;24.990;2022-08-07T20:38:48;10.00;99.90
30063;DHT22;16889;67.864;24.990;2022-08-07T20:43:41;10.00;99.90
30063;DHT22;16889;67.864;24.990;2022-08-07T20:48:29;9.90;99.90
30063;DHT22;16889;67.864;24.990;2022-08-07T20:53:15;9.80;99.90
30063;DHT22;16889;67.864;24.990;2022-08-07T20:58:02;9.80;99.90
30063;DHT22;16889;67.864;24.990;2022-08-07T21:02:51;9.70;99.90
30063;DHT22;16889;67.864;24.990;2022-08-07T21:07:51;9.50;99.90
30063;DHT22;16889;67.864;24.990;2022-08-07T21:12:39;9.40;99.90
30063;DHT22;16889;67.864;24.990;2022-08-07T21:17:31;9.40;99.90
30063;DHT22;16889;67.864;24.990;2022-08-07T21:22:19;9.30;99.90
30063;DHT22;16889;67.864;24.990;2022-08-07T21:37:50;9.20;99.90
30063;DHT22;16889;67.864;24.990;2022-08-07T21:42:49;9.20;99.90
30063;DHT22;16889;67.864;24.990;2022-08-07T21:52:53;9.30;99.90
30063;DHT22;16889;67.864;24.990;2022-08-07T22:03:34;9.30;99.90
30063;DHT22;16889;67.864;24.990;2022-08-07T22:08:27;9.30;99.90
30063;DHT22;16889;67.864;24.990;2022-08-07T22:13:17;9.30;99.90
30063;DHT22;16889;67.864;24.990;2022-08-07T22:18:08;9.30;99.90
30063;DHT22;16889;67.864;24.990;2022-08-07T22:23:00;9.30;99.90
30063;DHT22;16889;67.864;24.990;2022-08-07T22:27:59;9.30;99.90
30063;DHT22;16889;67.864;24.990;2022-08-07T22:33:10;9.30;99.90
30063;DHT22;16889;67.864;24.990;2022-08-07T22:42:56;9.30;99.90
30063;DHT22;16889;67.864;24.990;2022-08-07T23:03:24;9.30;99.90
30063;DHT22;16889;67.864;24.990;2022-08-07T23:08:36;9.20;99.90
